sensor_id;sensor_type;location;lat;lon;timestamp;P1;durP1;ratioP1;P2;durP2;ratioP2
15412;SDS011;7805;49.554;7.632;2023-08-06T00:00:05;3.03;;;2.77;;
15412;SDS011;7805;49.554;7.632;2023-08-06T00:02:31;4.20;;;2.60;;
15412;SDS011;7805;49.554;7.632;2023-08-06T00:04:56;2.90;;;2.60;;
15412;SDS011;7805;49.554;7.632;2023-08-06T00:07:22;2.67;;;2.47;;
15412;SDS011;7805;49.554;7.632;2023-08-06T00:09:47;5.27;;;2.47;;
15412;SDS011;7805;49.554;7.632;2023-08-06T00:12:13;10.23;;;6.17;;
15412;SDS011;7805;49.554;7.632;2023-08-06T00:14:38;5.80;;;3.90;;
15412;SDS011;7805;49.554;7.632;2023-08-06T00:17:04;2.77;;;2.57;;
15412;SDS011;7805;49.554;7.632;2023-08-06T00:19:30;2.73;;;2.40;;
15412;SDS011;7805;49.554;7.632;2023-08-06T00:21:57;6.33;;;2.80;;
15412;SDS011;7805;49.554;7.632;2023-08-06T00:24:22;3.77;;;2.60;;
15412;SDS011;7805;49.554;7.632;2023-08-06T00:26:48;4.73;;;2.43;;
15412;SDS011;7805;49.554;7.632;2023-08-06T00:29:13;5.17;;;2.70;;
15412;SDS011;7805;49.554;7.632;2023-08-06T00:31:39;4.23;;;2.43;;
15412;SDS011;7805;49.554;7.632;2023-08-06T00:34:04;3.07;;;2.73;;
15412;SDS011;7805;49.554;7.632;2023-08-06T00:36:30;5.13;;;2.50;;
15412;SDS011;7805;49.554;7.632;2023-08-06T00:38:56;3.23;;;2.77;;
15412;SDS011;7805;49.554;7.632;2023-08-06T00:41:21;6.00;;;3.03;;
15412;SDS011;7805;49.554;7.632;2023-08-06T00:43:47;5.20;;;2.63;;
15412;SDS011;7805;49.554;7.632;2023-08-06T00:46:13;3.10;;;2.80;;
15412;SDS011;7805;49.554;7.632;2023-08-06T00:48:39;6.17;;;3.10;;
15412;SDS011;7805;49.554;7.632;2023-08-06T00:51:05;3.03;;;2.50;;
15412;SDS011;7805;49.554;7.632;2023-08-06T00:53:31;2.73;;;2.37;;
15412;SDS011;7805;49.554;7.632;2023-08-06T00:55:57;4.60;;;2.50;;
15412;SDS011;7805;49.554;7.632;2023-08-06T00:58:23;6.27;;;2.43;;
15412;SDS011;7805;49.554;7.632;2023-08-06T01:00:49;4.93;;;2.93;;
15412;SDS011;7805;49.554;7.632;2023-08-06T01:03:15;3.47;;;2.43;;
15412;SDS011;7805;49.554;7.632;2023-08-06T01:05:41;4.23;;;2.43;;
15412;SDS011;7805;49.554;7.632;2023-08-06T01:08:11;3.50;;;2.43;;
15412;SDS011;7805;49.554;7.632;2023-08-06T01:13:37;4.10;;;2.10;;
15412;SDS011;7805;49.554;7.632;2023-08-06T01:16:04;4.93;;;2.47;;
15412;SDS011;7805;49.554;7.632;2023-08-06T01:18:31;6.27;;;2.10;;
15412;SDS011;7805;49.554;7.632;2023-08-06T01:20:57;2.83;;;2.20;;
15412;SDS011;7805;49.554;7.632;2023-08-06T01:23:22;4.00;;;1.97;;
15412;SDS011;7805;49.554;7.632;2023-08-06T01:28:31;2.27;;;1.87;;
15412;SDS011;7805;49.554;7.632;2023-08-06T01:31:05;2.80;;;2.13;;
15412;SDS011;7805;49.554;7.632;2023-08-06T01:33:35;4.53;;;2.30;;
15412;SDS011;7805;49.554;7.632;2023-08-06T01:36:08;3.60;;;2.03;;
15412;SDS011;7805;49.554;7.632;2023-08-06T01:38:34;4.50;;;2.20;;
15412;SDS011;7805;49.554;7.632;2023-08-06T01:41:00;4.30;;;2.00;;
15412;SDS011;7805;49.554;7.632;2023-08-06T01:43:25;3.23;;;2.20;;
15412;SDS011;7805;49.554;7.632;2023-08-06T01:45:51;3.23;;;1.90;;
15412;SDS011;7805;49.554;7.632;2023-08-06T01:48:16;3.90;;;1.93;;
15412;SDS011;7805;49.554;7.632;2023-08-06T01:50:42;2.93;;;1.80;;
15412;SDS011;7805;49.554;7.632;2023-08-06T01:53:08;4.50;;;1.90;;
15412;SDS011;7805;49.554;7.632;2023-08-06T01:55:33;4.83;;;2.00;;
15412;SDS011;7805;49.554;7.632;2023-08-06T01:57:59;7.37;;;2.03;;
15412;SDS011;7805;49.554;7.632;2023-08-06T02:00:24;4.80;;;1.97;;
15412;SDS011;7805;49.554;7.632;2023-08-06T02:02:50;6.83;;;1.87;;
15412;SDS011;7805;49.554;7.632;2023-08-06T02:05:15;6.63;;;2.23;;
15412;SDS011;7805;49.554;7.632;2023-08-06T02:07:41;4.97;;;1.70;;
15412;SDS011;7805;49.554;7.632;2023-08-06T02:10:07;3.53;;;1.93;;
15412;SDS011;7805;49.554;7.632;2023-08-06T02:12:32;2.67;;;1.80;;
15412;SDS011;7805;49.554;7.632;2023-08-06T02:14:58;2.07;;;1.70;;
15412;SDS011;7805;49.554;7.632;2023-08-06T02:17:24;5.97;;;2.20;;
15412;SDS011;7805;49.554;7.632;2023-08-06T02:19:49;2.40;;;1.57;;
15412;SDS011;7805;49.554;7.632;2023-08-06T02:22:15;2.70;;;1.63;;
15412;SDS011;7805;49.554;7.632;2023-08-06T02:24:40;3.33;;;1.63;;
15412;SDS011;7805;49.554;7.632;2023-08-06T02:27:06;2.50;;;1.80;;
15412;SDS011;7805;49.554;7.632;2023-08-06T02:29:31;3.93;;;1.80;;
15412;SDS011;7805;49.554;7.632;2023-08-06T02:31:57;2.40;;;1.77;;
15412;SDS011;7805;49.554;7.632;2023-08-06T02:34:23;2.30;;;1.70;;
15412;SDS011;7805;49.554;7.632;2023-08-06T02:36:48;4.93;;;2.00;;
15412;SDS011;7805;49.554;7.632;2023-08-06T02:39:14;3.23;;;1.43;;
15412;SDS011;7805;49.554;7.632;2023-08-06T02:41:39;3.03;;;1.60;;
15412;SDS011;7805;49.554;7.632;2023-08-06T02:44:05;2.50;;;1.33;;
15412;SDS011;7805;49.554;7.632;2023-08-06T02:46:30;2.73;;;1.13;;
15412;SDS011;7805;49.554;7.632;2023-08-06T02:48:56;1.60;;;1.30;;
15412;SDS011;7805;49.554;7.632;2023-08-06T02:51:22;1.93;;;1.30;;
15412;SDS011;7805;49.554;7.632;2023-08-06T02:53:48;1.10;;;0.97;;
15412;SDS011;7805;49.554;7.632;2023-08-06T02:56:14;1.87;;;1.10;;
15412;SDS011;7805;49.554;7.632;2023-08-06T02:58:39;0.70;;;0.60;;
15412;SDS011;7805;49.554;7.632;2023-08-06T03:01:05;2.23;;;1.27;;
15412;SDS011;7805;49.554;7.632;2023-08-06T03:03:32;1.90;;;0.83;;
15412;SDS011;7805;49.554;7.632;2023-08-06T03:05:58;1.83;;;0.90;;
15412;SDS011;7805;49.554;7.632;2023-08-06T03:08:24;1.03;;;1.00;;
15412;SDS011;7805;49.554;7.632;2023-08-06T03:10:50;1.50;;;0.90;;
15412;SDS011;7805;49.554;7.632;2023-08-06T03:13:16;2.30;;;1.10;;
15412;SDS011;7805;49.554;7.632;2023-08-06T03:15:42;0.70;;;0.70;;
15412;SDS011;7805;49.554;7.632;2023-08-06T03:18:08;1.67;;;0.80;;
15412;SDS011;7805;49.554;7.632;2023-08-06T03:20:33;1.90;;;0.83;;
15412;SDS011;7805;49.554;7.632;2023-08-06T03:22:59;1.07;;;0.77;;
15412;SDS011;7805;49.554;7.632;2023-08-06T03:25:24;0.60;;;0.60;;
15412;SDS011;7805;49.554;7.632;2023-08-06T03:27:50;0.73;;;0.60;;
15412;SDS011;7805;49.554;7.632;2023-08-06T03:30:16;1.00;;;0.50;;
15412;SDS011;7805;49.554;7.632;2023-08-06T03:32:41;0.77;;;0.47;;
15412;SDS011;7805;49.554;7.632;2023-08-06T03:35:07;1.07;;;0.60;;
15412;SDS011;7805;49.554;7.632;2023-08-06T03:37:32;1.67;;;0.70;;
15412;SDS011;7805;49.554;7.632;2023-08-06T03:39:58;1.13;;;0.20;;
15412;SDS011;7805;49.554;7.632;2023-08-06T03:42:23;2.00;;;0.47;;
15412;SDS011;7805;49.554;7.632;2023-08-06T03:44:49;2.07;;;0.50;;
15412;SDS011;7805;49.554;7.632;2023-08-06T03:47:14;0.50;;;0.50;;
15412;SDS011;7805;49.554;7.632;2023-08-06T03:49:40;0.63;;;0.47;;
15412;SDS011;7805;49.554;7.632;2023-08-06T03:52:06;0.97;;;0.70;;
15412;SDS011;7805;49.554;7.632;2023-08-06T03:54:31;0.90;;;0.43;;
15412;SDS011;7805;49.554;7.632;2023-08-06T03:56:57;0.53;;;0.50;;
15412;SDS011;7805;49.554;7.632;2023-08-06T03:59:22;3.30;;;0.50;;
15412;SDS011;7805;49.554;7.632;2023-08-06T04:01:48;1.97;;;0.70;;
15412;SDS011;7805;49.554;7.632;2023-08-06T04:04:14;1.00;;;0.33;;
15412;SDS011;7805;49.554;7.632;2023-08-06T04:06:39;0.90;;;0.60;;
15412;SDS011;7805;49.554;7.632;2023-08-06T04:09:05;2.30;;;0.67;;
15412;SDS011;7805;49.554;7.632;2023-08-06T04:11:30;1.33;;;0.40;;
15412;SDS011;7805;49.554;7.632;2023-08-06T04:13:56;0.63;;;0.40;;
15412;SDS011;7805;49.554;7.632;2023-08-06T04:16:21;0.50;;;0.47;;
15412;SDS011;7805;49.554;7.632;2023-08-06T04:18:47;0.43;;;0.40;;
15412;SDS011;7805;49.554;7.632;2023-08-06T04:21:13;1.33;;;0.30;;
15412;SDS011;7805;49.554;7.632;2023-08-06T04:23:38;0.47;;;0.30;;
15412;SDS011;7805;49.554;7.632;2023-08-06T04:26:04;0.30;;;0.30;;
15412;SDS011;7805;49.554;7.632;2023-08-06T04:28:29;1.17;;;0.40;;
15412;SDS011;7805;49.554;7.632;2023-08-06T04:30:55;0.90;;;0.30;;
15412;SDS011;7805;49.554;7.632;2023-08-06T04:33:21;0.20;;;0.20;;
15412;SDS011;7805;49.554;7.632;2023-08-06T04:35:46;0.33;;;0.17;;
15412;SDS011;7805;49.554;7.632;2023-08-06T04:38:12;0.67;;;0.20;;
15412;SDS011;7805;49.554;7.632;2023-08-06T04:40:37;0.37;;;0.20;;
15412;SDS011;7805;49.554;7.632;2023-08-06T04:43:03;0.20;;;0.20;;
15412;SDS011;7805;49.554;7.632;2023-08-06T04:45:29;1.90;;;0.30;;
15412;SDS011;7805;49.554;7.632;2023-08-06T04:47:54;2.43;;;0.33;;
15412;SDS011;7805;49.554;7.632;2023-08-06T04:50:20;1.13;;;0.20;;
15412;SDS011;7805;49.554;7.632;2023-08-06T04:52:45;0.67;;;0.30;;
15412;SDS011;7805;49.554;7.632;2023-08-06T04:55:11;1.17;;;0.30;;
15412;SDS011;7805;49.554;7.632;2023-08-06T04:57:37;4.47;;;0.40;;
15412;SDS011;7805;49.554;7.632;2023-08-06T05:00:02;0.50;;;0.23;;
15412;SDS011;7805;49.554;7.632;2023-08-06T05:02:29;0.50;;;0.40;;
15412;SDS011;7805;49.554;7.632;2023-08-06T05:04:57;0.67;;;0.30;;
15412;SDS011;7805;49.554;7.632;2023-08-06T05:07:23;0.20;;;0.20;;
15412;SDS011;7805;49.554;7.632;2023-08-06T05:09:48;0.90;;;0.40;;
15412;SDS011;7805;49.554;7.632;2023-08-06T05:12:14;2.17;;;0.33;;
15412;SDS011;7805;49.554;7.632;2023-08-06T05:14:39;0.57;;;0.40;;
15412;SDS011;7805;49.554;7.632;2023-08-06T05:17:05;0.57;;;0.27;;
15412;SDS011;7805;49.554;7.632;2023-08-06T05:19:31;0.90;;;0.20;;
15412;SDS011;7805;49.554;7.632;2023-08-06T05:21:57;2.57;;;0.50;;
15412;SDS011;7805;49.554;7.632;2023-08-06T05:24:22;1.23;;;0.30;;
15412;SDS011;7805;49.554;7.632;2023-08-06T05:26:48;0.27;;;0.20;;
15412;SDS011;7805;49.554;7.632;2023-08-06T05:29:13;0.77;;;0.40;;
15412;SDS011;7805;49.554;7.632;2023-08-06T05:31:39;0.77;;;0.37;;
15412;SDS011;7805;49.554;7.632;2023-08-06T05:34:04;0.30;;;0.20;;
15412;SDS011;7805;49.554;7.632;2023-08-06T05:36:30;0.53;;;0.20;;
15412;SDS011;7805;49.554;7.632;2023-08-06T05:38:56;0.97;;;0.33;;
15412;SDS011;7805;49.554;7.632;2023-08-06T05:41:21;0.40;;;0.30;;
15412;SDS011;7805;49.554;7.632;2023-08-06T05:43:47;0.67;;;0.47;;
15412;SDS011;7805;49.554;7.632;2023-08-06T05:46:12;0.57;;;0.40;;
15412;SDS011;7805;49.554;7.632;2023-08-06T05:48:38;0.57;;;0.43;;
15412;SDS011;7805;49.554;7.632;2023-08-06T05:51:03;0.60;;;0.50;;
15412;SDS011;7805;49.554;7.632;2023-08-06T05:53:29;0.93;;;0.73;;
15412;SDS011;7805;49.554;7.632;2023-08-06T05:55:54;0.73;;;0.50;;
15412;SDS011;7805;49.554;7.632;2023-08-06T05:58:20;3.80;;;0.93;;
15412;SDS011;7805;49.554;7.632;2023-08-06T06:00:46;0.43;;;0.40;;
15412;SDS011;7805;49.554;7.632;2023-08-06T06:03:11;1.10;;;0.60;;
15412;SDS011;7805;49.554;7.632;2023-08-06T06:05:37;5.60;;;5.10;;
15412;SDS011;7805;49.554;7.632;2023-08-06T06:08:04;1.47;;;1.37;;
15412;SDS011;7805;49.554;7.632;2023-08-06T06:10:29;1.57;;;0.83;;
15412;SDS011;7805;49.554;7.632;2023-08-06T06:12:55;3.07;;;0.80;;
15412;SDS011;7805;49.554;7.632;2023-08-06T06:15:20;1.30;;;0.50;;
15412;SDS011;7805;49.554;7.632;2023-08-06T06:17:46;0.50;;;0.50;;
15412;SDS011;7805;49.554;7.632;2023-08-06T06:20:12;0.40;;;0.40;;
15412;SDS011;7805;49.554;7.632;2023-08-06T06:22:37;1.27;;;0.70;;
15412;SDS011;7805;49.554;7.632;2023-08-06T06:25:03;0.93;;;0.43;;
15412;SDS011;7805;49.554;7.632;2023-08-06T06:27:31;0.80;;;0.70;;
15412;SDS011;7805;49.554;7.632;2023-08-06T06:29:57;0.90;;;0.50;;
15412;SDS011;7805;49.554;7.632;2023-08-06T06:32:22;0.53;;;0.53;;
15412;SDS011;7805;49.554;7.632;2023-08-06T06:34:48;2.10;;;0.60;;
15412;SDS011;7805;49.554;7.632;2023-08-06T06:37:14;0.70;;;0.50;;
15412;SDS011;7805;49.554;7.632;2023-08-06T06:39:39;0.30;;;0.30;;
15412;SDS011;7805;49.554;7.632;2023-08-06T06:42:05;0.30;;;0.30;;
15412;SDS011;7805;49.554;7.632;2023-08-06T06:44:31;0.40;;;0.40;;
15412;SDS011;7805;49.554;7.632;2023-08-06T06:46:56;0.40;;;0.40;;
15412;SDS011;7805;49.554;7.632;2023-08-06T06:49:22;1.00;;;0.30;;
15412;SDS011;7805;49.554;7.632;2023-08-06T06:51:47;0.20;;;0.20;;
15412;SDS011;7805;49.554;7.632;2023-08-06T06:54:13;0.20;;;0.20;;
15412;SDS011;7805;49.554;7.632;2023-08-06T06:56:38;0.80;;;0.20;;
15412;SDS011;7805;49.554;7.632;2023-08-06T06:59:04;0.20;;;0.20;;
15412;SDS011;7805;49.554;7.632;2023-08-06T07:01:30;0.33;;;0.30;;
15412;SDS011;7805;49.554;7.632;2023-08-06T07:03:55;0.50;;;0.20;;
15412;SDS011;7805;49.554;7.632;2023-08-06T07:06:22;0.20;;;0.20;;
15412;SDS011;7805;49.554;7.632;2023-08-06T07:08:47;0.20;;;0.20;;
15412;SDS011;7805;49.554;7.632;2023-08-06T07:11:13;0.63;;;0.30;;
15412;SDS011;7805;49.554;7.632;2023-08-06T07:13:38;0.40;;;0.40;;
15412;SDS011;7805;49.554;7.632;2023-08-06T07:16:04;0.40;;;0.40;;
15412;SDS011;7805;49.554;7.632;2023-08-06T07:18:30;1.53;;;0.70;;
15412;SDS011;7805;49.554;7.632;2023-08-06T07:20:56;0.47;;;0.47;;
15412;SDS011;7805;49.554;7.632;2023-08-06T07:23:22;0.60;;;0.60;;
15412;SDS011;7805;49.554;7.632;2023-08-06T07:25:49;0.60;;;0.60;;
15412;SDS011;7805;49.554;7.632;2023-08-06T07:28:15;1.40;;;0.70;;
15412;SDS011;7805;49.554;7.632;2023-08-06T07:30:41;1.00;;;0.60;;
15412;SDS011;7805;49.554;7.632;2023-08-06T07:33:07;1.03;;;0.93;;
15412;SDS011;7805;49.554;7.632;2023-08-06T07:35:33;0.63;;;0.57;;
15412;SDS011;7805;49.554;7.632;2023-08-06T07:38:00;0.60;;;0.60;;
15412;SDS011;7805;49.554;7.632;2023-08-06T07:40:25;1.07;;;0.87;;
15412;SDS011;7805;49.554;7.632;2023-08-06T07:42:51;0.70;;;0.70;;
15412;SDS011;7805;49.554;7.632;2023-08-06T07:45:16;0.60;;;0.60;;
15412;SDS011;7805;49.554;7.632;2023-08-06T07:47:42;0.73;;;0.50;;
15412;SDS011;7805;49.554;7.632;2023-08-06T07:50:08;0.50;;;0.50;;
15412;SDS011;7805;49.554;7.632;2023-08-06T07:52:34;0.43;;;0.43;;
15412;SDS011;7805;49.554;7.632;2023-08-06T07:55:00;0.43;;;0.43;;
15412;SDS011;7805;49.554;7.632;2023-08-06T07:57:29;0.70;;;0.37;;
15412;SDS011;7805;49.554;7.632;2023-08-06T07:59:55;1.43;;;0.40;;
15412;SDS011;7805;49.554;7.632;2023-08-06T08:02:21;1.47;;;0.40;;
15412;SDS011;7805;49.554;7.632;2023-08-06T08:04:47;0.40;;;0.40;;
15412;SDS011;7805;49.554;7.632;2023-08-06T08:07:13;1.50;;;0.20;;
15412;SDS011;7805;49.554;7.632;2023-08-06T08:09:39;1.00;;;0.40;;
15412;SDS011;7805;49.554;7.632;2023-08-06T08:12:05;0.93;;;0.40;;
15412;SDS011;7805;49.554;7.632;2023-08-06T08:14:31;0.30;;;0.30;;
15412;SDS011;7805;49.554;7.632;2023-08-06T08:17:00;0.73;;;0.57;;
15412;SDS011;7805;49.554;7.632;2023-08-06T08:19:27;1.40;;;0.37;;
15412;SDS011;7805;49.554;7.632;2023-08-06T08:21:53;0.40;;;0.20;;
15412;SDS011;7805;49.554;7.632;2023-08-06T08:24:19;0.53;;;0.30;;
15412;SDS011;7805;49.554;7.632;2023-08-06T08:26:46;0.30;;;0.20;;
15412;SDS011;7805;49.554;7.632;2023-08-06T08:29:12;0.33;;;0.30;;
15412;SDS011;7805;49.554;7.632;2023-08-06T08:31:37;1.93;;;0.50;;
15412;SDS011;7805;49.554;7.632;2023-08-06T08:34:04;0.30;;;0.30;;
15412;SDS011;7805;49.554;7.632;2023-08-06T08:36:31;0.40;;;0.40;;
15412;SDS011;7805;49.554;7.632;2023-08-06T08:38:56;0.20;;;0.20;;
15412;SDS011;7805;49.554;7.632;2023-08-06T08:41:22;1.37;;;0.27;;
15412;SDS011;7805;49.554;7.632;2023-08-06T08:43:48;0.57;;;0.57;;
15412;SDS011;7805;49.554;7.632;2023-08-06T08:46:17;0.40;;;0.40;;
15412;SDS011;7805;49.554;7.632;2023-08-06T08:48:44;0.83;;;0.47;;
15412;SDS011;7805;49.554;7.632;2023-08-06T08:51:11;0.47;;;0.30;;
15412;SDS011;7805;49.554;7.632;2023-08-06T08:53:38;0.10;;;0.10;;
15412;SDS011;7805;49.554;7.632;2023-08-06T08:56:04;0.40;;;0.40;;
15412;SDS011;7805;49.554;7.632;2023-08-06T08:58:30;0.10;;;0.10;;
15412;SDS011;7805;49.554;7.632;2023-08-06T09:00:56;1.33;;;0.30;;
15412;SDS011;7805;49.554;7.632;2023-08-06T09:03:22;0.20;;;0.20;;
15412;SDS011;7805;49.554;7.632;2023-08-06T09:05:49;0.20;;;0.20;;
15412;SDS011;7805;49.554;7.632;2023-08-06T09:08:18;0.37;;;0.10;;
15412;SDS011;7805;49.554;7.632;2023-08-06T09:10:49;1.03;;;0.10;;
15412;SDS011;7805;49.554;7.632;2023-08-06T09:13:15;1.23;;;0.20;;
15412;SDS011;7805;49.554;7.632;2023-08-06T09:15:41;0.47;;;0.20;;
15412;SDS011;7805;49.554;7.632;2023-08-06T09:18:09;0.23;;;0.23;;
15412;SDS011;7805;49.554;7.632;2023-08-06T09:20:37;0.93;;;0.30;;
15412;SDS011;7805;49.554;7.632;2023-08-06T09:23:08;0.10;;;0.10;;
15412;SDS011;7805;49.554;7.632;2023-08-06T09:25:37;0.17;;;0.17;;
15412;SDS011;7805;49.554;7.632;2023-08-06T09:28:06;1.80;;;0.30;;
15412;SDS011;7805;49.554;7.632;2023-08-06T09:30:36;0.77;;;0.20;;
15412;SDS011;7805;49.554;7.632;2023-08-06T09:33:02;0.50;;;0.20;;
15412;SDS011;7805;49.554;7.632;2023-08-06T09:35:31;0.20;;;0.20;;
15412;SDS011;7805;49.554;7.632;2023-08-06T09:38:06;0.30;;;0.30;;
15412;SDS011;7805;49.554;7.632;2023-08-06T09:40:33;0.20;;;0.20;;
15412;SDS011;7805;49.554;7.632;2023-08-06T09:42:59;0.17;;;0.17;;
15412;SDS011;7805;49.554;7.632;2023-08-06T09:45:28;0.73;;;0.10;;
15412;SDS011;7805;49.554;7.632;2023-08-06T09:47:56;0.10;;;0.10;;
15412;SDS011;7805;49.554;7.632;2023-08-06T09:50:22;1.00;;;0.30;;
15412;SDS011;7805;49.554;7.632;2023-08-06T09:52:52;3.20;;;0.27;;
15412;SDS011;7805;49.554;7.632;2023-08-06T09:55:19;1.23;;;0.60;;
15412;SDS011;7805;49.554;7.632;2023-08-06T09:57:46;0.30;;;0.30;;
15412;SDS011;7805;49.554;7.632;2023-08-06T10:00:12;0.83;;;0.10;;
15412;SDS011;7805;49.554;7.632;2023-08-06T10:02:39;0.30;;;0.30;;
15412;SDS011;7805;49.554;7.632;2023-08-06T10:05:05;0.20;;;0.20;;
15412;SDS011;7805;49.554;7.632;2023-08-06T10:07:32;0.20;;;0.20;;
15412;SDS011;7805;49.554;7.632;2023-08-06T10:09:59;0.30;;;0.30;;
15412;SDS011;7805;49.554;7.632;2023-08-06T10:12:25;0.20;;;0.20;;
15412;SDS011;7805;49.554;7.632;2023-08-06T10:14:54;0.23;;;0.23;;
15412;SDS011;7805;49.554;7.632;2023-08-06T10:17:22;1.17;;;0.43;;
15412;SDS011;7805;49.554;7.632;2023-08-06T10:19:49;1.07;;;0.20;;
15412;SDS011;7805;49.554;7.632;2023-08-06T10:22:17;0.40;;;0.40;;
15412;SDS011;7805;49.554;7.632;2023-08-06T10:24:49;0.90;;;0.57;;
15412;SDS011;7805;49.554;7.632;2023-08-06T10:27:22;0.20;;;0.20;;
15412;SDS011;7805;49.554;7.632;2023-08-06T10:32:50;0.37;;;0.37;;
15412;SDS011;7805;49.554;7.632;2023-08-06T10:35:36;0.47;;;0.20;;
15412;SDS011;7805;49.554;7.632;2023-08-06T10:38:10;0.20;;;0.20;;
15412;SDS011;7805;49.554;7.632;2023-08-06T10:40:37;1.13;;;0.30;;
15412;SDS011;7805;49.554;7.632;2023-08-06T10:43:05;1.20;;;0.40;;
15412;SDS011;7805;49.554;7.632;2023-08-06T10:45:36;0.50;;;0.30;;
15412;SDS011;7805;49.554;7.632;2023-08-06T10:48:03;0.50;;;0.50;;
15412;SDS011;7805;49.554;7.632;2023-08-06T10:50:29;0.40;;;0.40;;
15412;SDS011;7805;49.554;7.632;2023-08-06T10:52:56;1.03;;;0.80;;
15412;SDS011;7805;49.554;7.632;2023-08-06T10:55:26;0.80;;;0.80;;
15412;SDS011;7805;49.554;7.632;2023-08-06T10:57:52;0.47;;;0.40;;
15412;SDS011;7805;49.554;7.632;2023-08-06T11:00:20;0.60;;;0.60;;
15412;SDS011;7805;49.554;7.632;2023-08-06T11:02:47;0.80;;;0.70;;
15412;SDS011;7805;49.554;7.632;2023-08-06T11:05:14;0.50;;;0.50;;
15412;SDS011;7805;49.554;7.632;2023-08-06T11:07:39;0.90;;;0.87;;
15412;SDS011;7805;49.554;7.632;2023-08-06T11:10:06;0.80;;;0.80;;
15412;SDS011;7805;49.554;7.632;2023-08-06T11:12:33;1.40;;;0.70;;
15412;SDS011;7805;49.554;7.632;2023-08-06T11:15:00;0.70;;;0.70;;
15412;SDS011;7805;49.554;7.632;2023-08-06T11:17:27;1.20;;;1.10;;
15412;SDS011;7805;49.554;7.632;2023-08-06T11:19:54;0.70;;;0.63;;
15412;SDS011;7805;49.554;7.632;2023-08-06T11:22:22;2.00;;;0.60;;
15412;SDS011;7805;49.554;7.632;2023-08-06T11:24:48;1.73;;;1.10;;
15412;SDS011;7805;49.554;7.632;2023-08-06T11:27:14;1.33;;;0.90;;
15412;SDS011;7805;49.554;7.632;2023-08-06T11:29:41;1.17;;;0.70;;
15412;SDS011;7805;49.554;7.632;2023-08-06T11:32:08;1.37;;;0.90;;
15412;SDS011;7805;49.554;7.632;2023-08-06T11:34:34;1.47;;;0.97;;
15412;SDS011;7805;49.554;7.632;2023-08-06T11:37:02;1.73;;;1.20;;
15412;SDS011;7805;49.554;7.632;2023-08-06T11:39:30;2.30;;;0.80;;
15412;SDS011;7805;49.554;7.632;2023-08-06T11:41:57;1.43;;;0.97;;
15412;SDS011;7805;49.554;7.632;2023-08-06T11:44:25;1.10;;;1.00;;
15412;SDS011;7805;49.554;7.632;2023-08-06T11:46:54;1.17;;;0.87;;
15412;SDS011;7805;49.554;7.632;2023-08-06T11:49:40;0.67;;;0.60;;
15412;SDS011;7805;49.554;7.632;2023-08-06T11:52:30;3.57;;;1.00;;
15412;SDS011;7805;49.554;7.632;2023-08-06T11:57:29;0.87;;;0.87;;
15412;SDS011;7805;49.554;7.632;2023-08-06T11:59:58;1.23;;;0.70;;
15412;SDS011;7805;49.554;7.632;2023-08-06T12:02:27;0.60;;;0.50;;
15412;SDS011;7805;49.554;7.632;2023-08-06T12:07:41;3.20;;;1.00;;
15412;SDS011;7805;49.554;7.632;2023-08-06T12:10:11;1.87;;;0.50;;
15412;SDS011;7805;49.554;7.632;2023-08-06T12:12:38;1.40;;;0.60;;
15412;SDS011;7805;49.554;7.632;2023-08-06T12:15:04;1.40;;;0.60;;
15412;SDS011;7805;49.554;7.632;2023-08-06T12:17:31;1.00;;;0.50;;
15412;SDS011;7805;49.554;7.632;2023-08-06T12:19:57;0.40;;;0.40;;
15412;SDS011;7805;49.554;7.632;2023-08-06T12:22:22;1.07;;;0.50;;
15412;SDS011;7805;49.554;7.632;2023-08-06T12:24:48;0.80;;;0.40;;
15412;SDS011;7805;49.554;7.632;2023-08-06T12:27:14;1.00;;;0.50;;
15412;SDS011;7805;49.554;7.632;2023-08-06T12:29:44;0.63;;;0.33;;
15412;SDS011;7805;49.554;7.632;2023-08-06T12:32:12;0.67;;;0.50;;
15412;SDS011;7805;49.554;7.632;2023-08-06T12:34:38;0.40;;;0.40;;
15412;SDS011;7805;49.554;7.632;2023-08-06T12:37:04;0.50;;;0.50;;
15412;SDS011;7805;49.554;7.632;2023-08-06T12:39:31;0.70;;;0.40;;
15412;SDS011;7805;49.554;7.632;2023-08-06T12:41:57;0.30;;;0.30;;
15412;SDS011;7805;49.554;7.632;2023-08-06T12:44:24;0.30;;;0.30;;
15412;SDS011;7805;49.554;7.632;2023-08-06T12:46:50;0.40;;;0.40;;
15412;SDS011;7805;49.554;7.632;2023-08-06T12:49:16;0.70;;;0.60;;
15412;SDS011;7805;49.554;7.632;2023-08-06T12:51:42;1.00;;;0.70;;
15412;SDS011;7805;49.554;7.632;2023-08-06T12:54:08;1.10;;;0.80;;
15412;SDS011;7805;49.554;7.632;2023-08-06T12:56:34;1.40;;;1.30;;
15412;SDS011;7805;49.554;7.632;2023-08-06T12:58:59;0.30;;;0.30;;
15412;SDS011;7805;49.554;7.632;2023-08-06T13:01:25;1.33;;;0.97;;
15412;SDS011;7805;49.554;7.632;2023-08-06T13:03:50;3.23;;;1.80;;
15412;SDS011;7805;49.554;7.632;2023-08-06T13:06:16;2.20;;;1.57;;
15412;SDS011;7805;49.554;7.632;2023-08-06T13:08:42;1.07;;;0.50;;
15412;SDS011;7805;49.554;7.632;2023-08-06T13:11:07;0.70;;;0.70;;
15412;SDS011;7805;49.554;7.632;2023-08-06T13:13:33;1.23;;;0.90;;
15412;SDS011;7805;49.554;7.632;2023-08-06T13:15:58;1.27;;;0.83;;
15412;SDS011;7805;49.554;7.632;2023-08-06T13:18:24;1.53;;;0.80;;
15412;SDS011;7805;49.554;7.632;2023-08-06T13:20:50;2.40;;;1.30;;
15412;SDS011;7805;49.554;7.632;2023-08-06T13:23:19;2.30;;;0.97;;
15412;SDS011;7805;49.554;7.632;2023-08-06T13:25:45;2.90;;;1.40;;
15412;SDS011;7805;49.554;7.632;2023-08-06T13:28:10;1.40;;;0.83;;
15412;SDS011;7805;49.554;7.632;2023-08-06T13:30:36;2.43;;;0.80;;
15412;SDS011;7805;49.554;7.632;2023-08-06T13:33:06;2.87;;;2.30;;
15412;SDS011;7805;49.554;7.632;2023-08-06T13:35:33;1.50;;;1.27;;
15412;SDS011;7805;49.554;7.632;2023-08-06T13:37:58;1.70;;;0.60;;
15412;SDS011;7805;49.554;7.632;2023-08-06T13:40:24;1.23;;;1.03;;
15412;SDS011;7805;49.554;7.632;2023-08-06T13:42:49;1.87;;;0.87;;
15412;SDS011;7805;49.554;7.632;2023-08-06T13:45:15;4.03;;;1.07;;
15412;SDS011;7805;49.554;7.632;2023-08-06T13:47:41;1.53;;;1.37;;
15412;SDS011;7805;49.554;7.632;2023-08-06T13:50:06;1.60;;;1.10;;
15412;SDS011;7805;49.554;7.632;2023-08-06T13:52:33;0.80;;;0.80;;
15412;SDS011;7805;49.554;7.632;2023-08-06T13:55:00;1.03;;;0.97;;
15412;SDS011;7805;49.554;7.632;2023-08-06T13:57:26;1.67;;;0.73;;
15412;SDS011;7805;49.554;7.632;2023-08-06T13:59:51;4.13;;;1.10;;
15412;SDS011;7805;49.554;7.632;2023-08-06T14:02:17;0.53;;;0.53;;
15412;SDS011;7805;49.554;7.632;2023-08-06T14:04:43;0.83;;;0.40;;
15412;SDS011;7805;49.554;7.632;2023-08-06T14:07:08;1.33;;;0.43;;
15412;SDS011;7805;49.554;7.632;2023-08-06T14:09:34;1.53;;;0.90;;
15412;SDS011;7805;49.554;7.632;2023-08-06T14:12:00;2.20;;;0.60;;
15412;SDS011;7805;49.554;7.632;2023-08-06T14:14:25;2.27;;;0.70;;
15412;SDS011;7805;49.554;7.632;2023-08-06T14:16:54;1.70;;;0.53;;
15412;SDS011;7805;49.554;7.632;2023-08-06T14:19:20;0.30;;;0.30;;
15412;SDS011;7805;49.554;7.632;2023-08-06T14:21:45;0.30;;;0.30;;
15412;SDS011;7805;49.554;7.632;2023-08-06T14:24:11;1.77;;;0.50;;
15412;SDS011;7805;49.554;7.632;2023-08-06T14:26:37;3.57;;;3.27;;
15412;SDS011;7805;49.554;7.632;2023-08-06T14:29:03;1.00;;;0.90;;
15412;SDS011;7805;49.554;7.632;2023-08-06T14:31:29;0.30;;;0.30;;
15412;SDS011;7805;49.554;7.632;2023-08-06T14:33:54;0.50;;;0.40;;
15412;SDS011;7805;49.554;7.632;2023-08-06T14:36:20;0.73;;;0.40;;
15412;SDS011;7805;49.554;7.632;2023-08-06T14:38:45;3.70;;;0.77;;
15412;SDS011;7805;49.554;7.632;2023-08-06T14:41:11;1.40;;;1.30;;
15412;SDS011;7805;49.554;7.632;2023-08-06T14:43:37;0.70;;;0.70;;
15412;SDS011;7805;49.554;7.632;2023-08-06T14:46:02;1.20;;;0.40;;
15412;SDS011;7805;49.554;7.632;2023-08-06T14:48:28;0.73;;;0.50;;
15412;SDS011;7805;49.554;7.632;2023-08-06T14:50:55;0.77;;;0.57;;
15412;SDS011;7805;49.554;7.632;2023-08-06T14:53:20;0.53;;;0.53;;
15412;SDS011;7805;49.554;7.632;2023-08-06T14:55:46;0.87;;;0.50;;
15412;SDS011;7805;49.554;7.632;2023-08-06T14:58:11;0.30;;;0.30;;
15412;SDS011;7805;49.554;7.632;2023-08-06T15:00:37;0.50;;;0.50;;
15412;SDS011;7805;49.554;7.632;2023-08-06T15:03:03;0.60;;;0.60;;
15412;SDS011;7805;49.554;7.632;2023-08-06T15:05:28;0.50;;;0.50;;
15412;SDS011;7805;49.554;7.632;2023-08-06T15:07:54;0.50;;;0.50;;